Time;durP1;ratioP1;P1;durP2;ratioP2;P2;SDS_P1;SDS_P2;PMS_P1;PMS_P2;Temp;Humidity;BMP_temperature;BMP_pressure;BME280_temperature;BME280_humidity;BME280_pressure;Samples;Min_cycle;Max_cycle;Signal;HPM_P1;HPM_P2
2023/09/26 00:00:23;;;;;;;14.30;9.20;;;;;;;26.43;45.94;102237.52;107102;1251;25471;-56
2023/09/26 00:02:51;;;;;;;17.60;9.40;;;;;;;26.42;45.88;102238.29;106911;1259;25492;-56
2023/09/26 00:05:19;;;;;;;12.70;9.00;;;;;;;26.38;45.88;102236.78;107176;1250;22525;-57
2023/09/26 00:07:48;;;;;;;15.60;10.00;;;;;;;26.38;45.82;102236.77;107035;1253;22880;-58
2023/09/26 00:10:16;;;;;;;15.90;9.40;;;;;;;26.33;45.69;102232.09;106893;1267;25331;-58
2023/09/26 00:12:42;;;;;;;14.70;8.90;;;;;;;26.37;45.75;102231.29;107162;1260;25341;-58
2023/09/26 00:15:11;;;;;;;16.30;9.70;;;;;;;26.35;46.10;102234.27;107101;1260;22595;-58
2023/09/26 00:17:38;;;;;;;13.00;9.00;;;;;;;26.26;46.57;102236.33;107101;1250;25280;-58
2023/09/26 00:20:18;;;;;;;16.30;8.50;;;;;;;26.14;47.51;102234.77;107085;1254;25356;-57
2023/09/26 00:22:46;;;;;;;12.20;8.70;;;;;;;26.08;48.43;102238.86;107150;1250;25324;-57
2023/09/26 00:25:13;;;;;;;15.20;8.90;;;;;;;26.06;48.74;102237.41;106891;1263;22523;-58
2023/09/26 00:27:40;;;;;;;14.80;8.40;;;;;;;26.04;48.51;102238.61;107084;1254;25376;-57
2023/09/26 00:30:12;;;;;;;14.70;8.60;;;;;;;26.01;48.68;102238.77;107160;1260;25337;-57
2023/09/26 00:32:39;;;;;;;14.80;9.10;;;;;;;26.05;48.85;102239.95;107121;1254;25347;-57
2023/09/26 00:35:13;;;;;;;10.60;8.20;;;;;;;26.08;48.50;102240.67;106963;1260;25331;-57
2023/09/26 00:37:40;;;;;;;11.40;8.40;;;;;;;26.03;48.13;102245.41;107063;1254;25340;-57
2023/09/26 00:40:15;;;;;;;15.40;9.30;;;;;;;25.90;48.39;102247.27;106825;1257;25412;-58
2023/09/26 00:42:43;;;;;;;11.50;8.80;;;;;;;25.65;48.63;102248.11;106821;1263;25337;-57
2023/09/26 00:45:11;;;;;;;16.50;9.50;;;;;;;25.70;48.39;102244.09;106905;1267;25356;-57
2023/09/26 00:47:42;;;;;;;17.70;10.00;;;;;;;25.72;47.93;102250.00;106990;1266;25360;-58
2023/09/26 00:50:13;;;;;;;13.90;10.00;;;;;;;25.66;47.83;102249.98;107172;1262;22540;-57
2023/09/26 00:52:47;;;;;;;;;;;;;;;25.51;47.83;102248.29;106777;1259;25308;-57
2023/09/26 00:55:21;;;;;;;13.90;10.20;;;;;;;25.47;47.68;102246.89;107214;1255;22527;-57
2023/09/26 00:57:49;;;;;;;16.20;10.80;;;;;;;25.45;47.37;102244.41;107175;1263;25331;-57
2023/09/26 01:00:18;;;;;;;15.30;9.60;;;;;;;25.38;47.18;102242.64;107174;1255;25359;-57
2023/09/26 01:02:45;;;;;;;13.10;9.30;;;;;;;25.31;47.11;102244.84;107062;1254;22535;-58
2023/09/26 01:05:12;;;;;;;10.20;9.00;;;;;;;25.28;47.05;102243.45;106928;1258;25408;-57
2023/09/26 01:07:39;;;;;;;12.00;8.40;;;;;;;25.23;46.90;102241.42;106791;1256;25322;-58
2023/09/26 01:10:10;;;;;;;13.20;8.90;;;;;;;25.18;46.57;102240.67;106875;1266;22649;-57
2023/09/26 01:12:38;;;;;;;17.20;8.70;;;;;;;25.13;46.66;102244.91;107197;1257;25367;-57
2023/09/26 01:15:07;;;;;;;13.30;8.30;;;;;;;25.09;46.76;102244.90;106936;1257;25359;-58
2023/09/26 01:17:34;;;;;;;16.20;8.50;;;;;;;25.05;46.85;102245.19;106879;1256;25245;-57
2023/09/26 01:20:03;;;;;;;14.90;7.50;;;;;;;25.00;46.81;102246.00;106991;1256;25471;-57
2023/09/26 01:22:30;;;;;;;12.30;7.20;;;;;;;24.85;47.00;102242.27;106924;1254;25353;-58
2023/09/26 01:24:57;;;;;;;20.40;8.10;;;;;;;24.89;46.50;102242.37;106807;1256;24236;-57
2023/09/26 01:27:24;;;;;;;13.20;7.60;;;;;;;24.85;46.27;102237.83;107124;1257;25343;-57
2023/09/26 01:29:52;;;;;;;12.90;7.40;;;;;;;24.79;46.02;102238.73;107105;1256;25389;-57
2023/09/26 01:32:19;;;;;;;10.80;7.10;;;;;;;24.74;46.04;102242.73;107131;1251;22546;-58
2023/09/26 01:34:46;;;;;;;10.70;6.90;;;;;;;24.68;46.08;102240.77;106758;1260;22540;-57
2023/09/26 01:37:13;;;;;;;14.00;7.80;;;;;;;24.64;45.86;102239.91;107076;1254;25355;-58
2023/09/26 01:39:40;;;;;;;10.10;7.70;;;;;;;24.58;45.78;102238.66;106899;1260;25439;-57
2023/09/26 01:42:08;;;;;;;15.20;7.10;;;;;;;24.54;45.70;102239.42;106957;1259;25217;-57
2023/09/26 01:44:35;;;;;;;17.50;8.00;;;;;;;24.49;45.27;102238.12;107179;1257;25395;-58
2023/09/26 01:47:02;;;;;;;13.20;7.40;;;;;;;24.45;44.95;102237.48;107122;1251;25437;-58
2023/09/26 01:49:30;;;;;;;11.60;6.70;;;;;;;24.40;44.88;102240.04;107049;1254;25318;-57
2023/09/26 01:51:57;;;;;;;10.50;6.70;;;;;;;24.36;45.01;102238.52;106730;1274;25331;-57
2023/09/26 01:54:24;;;;;;;11.50;6.30;;;;;;;24.30;44.76;102236.89;106782;1270;25328;-58
2023/09/26 01:56:51;;;;;;;12.40;7.10;;;;;;;24.25;44.80;102237.16;107019;1258;25408;-57
2023/09/26 01:59:18;;;;;;;9.60;6.40;;;;;;;24.20;44.74;102239.20;106864;1257;25352;-57
2023/09/26 02:01:45;;;;;;;9.20;6.20;;;;;;;24.16;44.66;102238.20;107094;1255;23876;-58
2023/09/26 02:04:12;;;;;;;9.90;6.00;;;;;;;24.11;44.40;102236.33;107061;1253;25331;-56
2023/09/26 02:06:39;;;;;;;9.20;6.30;;;;;;;24.07;44.44;102241.01;107224;1254;25398;-57
2023/09/26 02:09:07;;;;;;;11.60;6.10;;;;;;;24.02;44.51;102240.15;106860;1257;24493;-57
2023/09/26 02:11:34;;;;;;;11.50;6.20;;;;;;;23.98;44.41;102242.35;107175;1270;25356;-57
2023/09/26 02:14:01;;;;;;;10.70;6.10;;;;;;;23.92;44.26;102243.55;106985;1270;25481;-57
2023/09/26 02:16:28;;;;;;;10.90;6.20;;;;;;;23.86;44.54;102240.55;107105;1263;25322;-58
2023/09/26 02:18:56;;;;;;;12.30;6.40;;;;;;;23.74;44.43;102243.98;107114;1251;25368;-57
2023/09/26 02:21:23;;;;;;;10.10;5.70;;;;;;;23.52;44.66;102246.09;107142;1263;25324;-58
2023/09/26 02:23:50;;;;;;;12.40;6.20;;;;;;;23.45;44.81;102247.52;107039;1251;25395;-57
2023/09/26 02:26:18;;;;;;;11.30;6.00;;;;;;;23.50;44.91;102244.05;107056;1254;25325;-57
2023/09/26 02:28:45;;;;;;;10.00;5.80;;;;;;;23.55;45.14;102242.01;107110;1254;24367;-57
2023/09/26 02:31:15;;;;;;;11.00;6.50;;;;;;;23.53;45.38;102242.83;107121;1263;25328;-57
2023/09/26 02:33:43;;;;;;;10.10;5.20;;;;;;;23.51;45.49;102242.06;107091;1254;25558;-57
2023/09/26 02:36:10;;;;;;;10.20;6.30;;;;;;;23.49;45.35;102242.18;107073;1254;25481;-57
2023/09/26 02:38:37;;;;;;;13.60;6.20;;;;;;;23.46;44.91;102246.06;107156;1260;25410;-58
2023/09/26 02:41:04;;;;;;;9.40;5.30;;;;;;;23.43;44.65;102251.18;106921;1269;25411;-58
2023/09/26 02:43:31;;;;;;;8.20;6.00;;;;;;;23.40;44.45;102252.73;107151;1263;25395;-57
2023/09/26 02:45:58;;;;;;;9.30;5.30;;;;;;;23.38;44.38;102253.02;106815;1257;25375;-58
2023/09/26 02:48:26;;;;;;;8.20;5.40;;;;;;;23.35;44.32;102254.77;106901;1258;25405;-58
2023/09/26 02:51:02;;;;;;;10.40;5.40;;;;;;;23.30;44.04;102254.80;106813;1258;25359;-58
2023/09/26 02:53:29;;;;;;;8.40;5.60;;;;;;;23.31;43.73;102256.16;107116;1253;22524;-58
2023/09/26 02:55:56;;;;;;;13.30;6.10;;;;;;;23.29;43.66;102258.56;107156;1251;23875;-58
2023/09/26 02:58:23;;;;;;;10.90;5.90;;;;;;;23.27;43.54;102258.88;107075;1254;25480;-58
2023/09/26 03:00:50;;;;;;;8.90;5.60;;;;;;;23.24;43.57;102263.45;107056;1254;25350;-58
2023/09/26 03:03:18;;;;;;;6.60;5.90;;;;;;;23.23;43.96;102262.09;107067;1255;22526;-59
2023/09/26 03:05:49;;;;;;;10.10;5.60;;;;;;;23.22;44.49;102265.33;107080;1267;22549;-57
2023/09/26 03:08:16;;;;;;;10.10;6.40;;;;;;;23.21;44.32;102265.02;107153;1256;25359;-58
2023/09/26 03:10:44;;;;;;;14.10;6.00;;;;;;;23.19;44.26;102268.28;107162;1254;25329;-57
2023/09/26 03:13:11;;;;;;;8.40;5.60;;;;;;;23.17;44.09;102265.73;107110;1266;24205;-57
2023/09/26 03:15:38;;;;;;;9.40;6.20;;;;;;;23.15;43.87;102266.70;107164;1267;25408;-58
2023/09/26 03:18:05;;;;;;;9.40;6.50;;;;;;;23.13;43.94;102266.84;107103;1254;24241;-58
2023/09/26 03:20:38;;;;;;;10.90;6.00;;;;;;;23.11;43.90;102265.86;106886;1267;25401;-57
2023/09/26 03:23:04;;;;;;;8.90;5.60;;;;;;;23.10;43.93;102268.25;107145;1254;23995;-57
2023/09/26 03:25:32;;;;;;;8.90;6.20;;;;;;;23.07;44.10;102270.33;106906;1259;25474;-57
2023/09/26 03:28:01;;;;;;;10.40;6.00;;;;;;;23.09;43.97;102274.33;107016;1254;22653;-57
2023/09/26 03:30:29;;;;;;;10.80;6.30;;;;;;;22.97;44.28;102274.39;106839;1257;25321;-57
2023/09/26 03:32:56;;;;;;;12.10;6.20;;;;;;;22.92;44.58;102277.83;107112;1251;25408;-57
2023/09/26 03:35:23;;;;;;;9.50;6.10;;;;;;;23.01;44.33;102278.92;107059;1254;25334;-58
2023/09/26 03:37:51;;;;;;;11.00;6.40;;;;;;;23.07;44.05;102281.99;106823;1259;25417;-57
2023/09/26 03:40:18;;;;;;;9.00;5.90;;;;;;;23.08;44.07;102286.59;106851;1257;25342;-57
2023/09/26 03:42:45;;;;;;;10.70;6.50;;;;;;;23.06;44.14;102290.73;106780;1255;25356;-57
2023/09/26 03:45:12;;;;;;;10.90;6.30;;;;;;;22.94;44.17;102290.81;107082;1258;25331;-57
2023/09/26 03:47:39;;;;;;;9.00;5.80;;;;;;;22.89;44.38;102293.55;107044;1263;25436;-58
2023/09/26 03:50:07;;;;;;;16.50;7.10;;;;;;;22.87;44.51;102289.40;107158;1263;25477;-57
2023/09/26 03:52:35;;;;;;;9.90;6.70;;;;;;;22.90;44.59;102292.59;107218;1260;25380;-57
2023/09/26 03:55:02;;;;;;;8.80;6.00;;;;;;;22.96;44.35;102294.77;107208;1264;25296;-57
2023/09/26 03:57:31;;;;;;;15.40;7.90;;;;;;;22.97;44.23;102296.50;107109;1263;25331;-56
2023/09/26 03:59:57;;;;;;;11.50;7.30;;;;;;;22.96;44.08;102295.81;107148;1256;22643;-57
2023/09/26 04:02:25;;;;;;;12.60;7.20;;;;;;;22.95;44.01;102297.65;106882;1260;25356;-57
2023/09/26 04:04:52;;;;;;;10.60;7.00;;;;;;;22.93;43.82;102300.39;107136;1260;25439;-57
2023/09/26 04:07:19;;;;;;;9.00;6.60;;;;;;;22.91;43.92;102301.90;107161;1256;25322;-57
2023/09/26 04:09:46;;;;;;;11.10;6.70;;;;;;;22.92;44.00;102301.54;107114;1254;24014;-58
2023/09/26 04:12:13;;;;;;;12.60;7.20;;;;;;;22.92;43.87;102301.35;107126;1254;25341;-57
2023/09/26 04:14:40;;;;;;;12.20;7.40;;;;;;;22.91;43.85;102302.11;107028;1254;25331;-57
2023/09/26 04:17:07;;;;;;;10.50;6.70;;;;;;;22.91;44.25;102300.52;107159;1256;25331;-58
2023/09/26 04:19:34;;;;;;;9.40;7.50;;;;;;;22.92;43.96;102302.78;107120;1256;25338;-58
2023/09/26 04:22:01;;;;;;;9.60;6.90;;;;;;;22.91;44.11;102305.80;107180;1256;25405;-58
2023/09/26 04:24:28;;;;;;;11.20;7.10;;;;;;;22.91;44.24;102308.64;107151;1266;25325;-58
2023/09/26 04:26:55;;;;;;;11.30;7.20;;;;;;;22.92;44.25;102312.31;107113;1267;25353;-58
2023/09/26 04:29:22;;;;;;;8.70;6.70;;;;;;;22.91;44.11;102312.36;107088;1263;25420;-59
2023/09/26 04:31:49;;;;;;;10.20;7.00;;;;;;;22.89;44.05;102311.38;106994;1274;25331;-59
2023/09/26 04:34:17;;;;;;;9.80;7.60;;;;;;;22.73;44.07;102313.41;107021;1254;25331;-58
2023/09/26 04:36:44;;;;;;;11.40;7.20;;;;;;;22.79;44.07;102314.72;106823;1263;25340;-59
2023/09/26 04:39:11;;;;;;;9.20;6.90;;;;;;;22.87;43.71;102313.61;106887;1260;25413;-58
2023/09/26 04:41:38;;;;;;;9.10;7.00;;;;;;;22.88;43.90;102317.30;105671;1254;1003793;-57
2023/09/26 04:44:07;;;;;;;11.50;7.40;;;;;;;22.88;43.71;102315.33;106826;1269;25398;-57
2023/09/26 04:46:34;;;;;;;14.40;7.30;;;;;;;22.88;43.58;102317.48;107122;1262;25294;-58
2023/09/26 04:49:01;;;;;;;11.60;6.80;;;;;;;22.88;43.82;102309.48;107181;1261;25481;-57
2023/09/26 04:51:28;;;;;;;10.90;7.10;;;;;;;22.88;44.02;102310.04;107140;1254;25343;-58
2023/09/26 04:53:58;;;;;;;13.30;7.20;;;;;;;22.89;44.27;102313.19;107110;1254;25408;-58
2023/09/26 04:56:25;;;;;;;11.50;7.40;;;;;;;22.83;44.68;102313.98;107158;1255;23481;-59
2023/09/26 04:58:52;;;;;;;10.70;7.70;;;;;;;22.90;44.51;102317.53;107062;1254;22529;-58
2023/09/26 05:01:18;;;;;;;10.90;7.60;;;;;;;22.94;44.41;102324.09;107110;1254;25331;-58
2023/09/26 05:03:46;;;;;;;13.40;7.50;;;;;;;22.96;44.46;102327.17;107084;1266;25411;-59
2023/09/26 05:06:13;;;;;;;9.50;7.40;;;;;;;22.98;44.50;102330.42;106946;1270;25341;-58
2023/09/26 05:08:40;;;;;;;13.90;7.30;;;;;;;22.92;44.55;102332.13;107072;1257;25408;-58
2023/09/26 05:11:14;;;;;;;13.10;7.00;;;;;;;22.91;44.69;102335.73;106932;1260;25350;-57
2023/09/26 05:13:42;;;;;;;13.20;7.80;;;;;;;22.92;44.61;102339.02;106884;1266;22609;-57
2023/09/26 05:16:10;;;;;;;8.60;6.40;;;;;;;22.95;44.98;102341.70;107139;1266;25484;-58
2023/09/26 05:18:37;;;;;;;11.00;7.10;;;;;;;23.00;45.38;102342.92;107150;1250;25651;-58
2023/09/26 05:21:08;;;;;;;13.40;7.50;;;;;;;23.04;45.47;102349.24;106946;1267;24212;-58
2023/09/26 05:23:35;;;;;;;14.70;6.70;;;;;;;23.08;45.48;102344.79;107194;1257;24323;-59
2023/09/26 05:26:06;;;;;;;12.40;7.40;;;;;;;23.13;45.26;102347.56;107119;1257;25498;-57
2023/09/26 05:28:33;;;;;;;15.00;6.80;;;;;;;23.19;45.27;102349.39;107179;1254;25475;-57
2023/09/26 05:31:01;;;;;;;9.00;6.80;;;;;;;23.25;45.44;102348.02;107102;1254;25319;-59
2023/09/26 05:33:28;;;;;;;16.00;7.50;;;;;;;23.29;45.55;102347.45;107090;1254;25465;-58
2023/09/26 05:35:55;;;;;;;13.70;6.80;;;;;;;23.35;45.28;102358.20;106862;1273;25346;-58
2023/09/26 05:38:22;;;;;;;13.50;7.60;;;;;;;23.37;45.08;102359.30;107153;1263;25331;-58
2023/09/26 05:40:50;;;;;;;14.20;7.40;;;;;;;23.41;44.82;102357.88;107078;1254;25331;-58
2023/09/26 05:43:17;;;;;;;10.00;7.10;;;;;;;23.45;45.40;102356.80;106951;1270;25376;-60
2023/09/26 05:45:48;;;;;;;18.10;7.90;;;;;;;23.49;45.98;102354.98;107134;1260;25376;-57
2023/09/26 05:48:15;;;;;;;17.00;7.70;;;;;;;23.54;45.59;102356.69;106824;1256;24333;-57
2023/09/26 05:50:42;;;;;;;11.00;7.20;;;;;;;23.59;45.77;102353.57;107215;1254;25385;-57
2023/09/26 05:53:09;;;;;;;10.30;6.30;;;;;;;23.67;46.21;102356.18;107140;1266;25330;-57
2023/09/26 05:55:36;;;;;;;10.00;6.70;;;;;;;23.76;46.53;102355.73;107157;1266;25408;-57
2023/09/26 05:58:04;;;;;;;12.30;7.60;;;;;;;23.84;46.40;102355.98;107208;1257;25379;-59
2023/09/26 06:00:31;;;;;;;13.40;7.20;;;;;;;23.94;46.16;102358.47;107165;1256;22660;-58
2023/09/26 06:02:57;;;;;;;9.60;6.70;;;;;;;24.04;46.36;102360.09;107155;1256;25503;-58
2023/09/26 06:05:25;;;;;;;11.90;6.90;;;;;;;24.14;46.58;102363.13;106715;1266;25347;-57
2023/09/26 06:07:53;;;;;;;12.20;7.70;;;;;;;24.23;46.47;102359.43;107042;1257;25359;-60
2023/09/26 06:10:20;;;;;;;13.30;7.40;;;;;;;24.32;46.37;102364.32;107136;1263;25321;-57
2023/09/26 06:12:47;;;;;;;21.50;7.80;;;;;;;24.40;46.26;102367.61;106868;1267;25783;-58
2023/09/26 06:15:14;;;;;;;12.30;6.70;;;;;;;24.47;46.22;102367.05;106373;1253;1003801;-57
2023/09/26 06:17:41;;;;;;;15.30;7.10;;;;;;;24.55;46.36;102365.73;107185;1263;25481;-57
2023/09/26 06:20:10;;;;;;;10.70;7.30;;;;;;;24.62;46.26;102373.27;107050;1263;25352;-58
2023/09/26 06:22:37;;;;;;;12.90;6.30;;;;;;;24.69;46.21;102375.38;107137;1254;23210;-58
2023/09/26 06:25:05;;;;;;;14.60;7.90;;;;;;;24.76;46.18;102375.04;106987;1254;25353;-59
2023/09/26 06:27:35;;;;;;;11.90;8.00;;;;;;;24.81;46.21;102378.85;107098;1266;25325;-58
2023/09/26 06:30:04;;;;;;;12.30;7.50;;;;;;;24.85;46.26;102375.57;107102;1253;25306;-59
2023/09/26 06:32:34;;;;;;;12.40;6.90;;;;;;;24.90;46.26;102380.41;107114;1254;22535;-58
2023/09/26 06:35:01;;;;;;;9.10;6.80;;;;;;;24.95;45.81;102374.85;107173;1256;25343;-58
2023/09/26 06:37:28;;;;;;;14.10;6.80;;;;;;;25.01;45.83;102378.75;106830;1266;386882;-58
2023/09/26 06:39:58;;;;;;;12.90;7.60;;;;;;;25.08;45.50;102381.39;107087;1254;25328;-58
2023/09/26 06:42:26;;;;;;;14.10;6.80;;;;;;;25.13;45.33;102384.84;107205;1254;25343;-57
2023/09/26 06:44:54;;;;;;;11.50;6.80;;;;;;;25.18;44.93;102382.56;107122;1257;23209;-58
2023/09/26 06:47:21;;;;;;;10.40;6.40;;;;;;;25.24;44.47;102381.14;107153;1254;25332;-58
2023/09/26 06:49:49;;;;;;;9.00;6.30;;;;;;;25.33;44.25;102384.52;107159;1257;25395;-58
2023/09/26 06:52:16;;;;;;;8.70;6.90;;;;;;;25.43;43.69;102378.27;106810;1262;25328;-58
2023/09/26 06:54:44;;;;;;;9.40;6.60;;;;;;;25.54;43.61;102378.88;107225;1257;25327;-59
2023/09/26 06:57:15;;;;;;;9.10;6.50;;;;;;;25.67;43.49;102379.73;107065;1254;22526;-58
2023/09/26 06:59:42;;;;;;;11.20;6.30;;;;;;;25.77;43.25;102374.45;106833;1259;25500;-59
2023/09/26 07:02:09;;;;;;;7.50;6.20;;;;;;;25.84;42.98;102374.42;107121;1266;25350;-57
2023/09/26 07:04:36;;;;;;;9.30;6.80;;;;;;;25.88;43.22;102376.71;107090;1257;25384;-58
2023/09/26 07:07:04;;;;;;;8.80;6.00;;;;;;;25.95;43.36;102376.63;107148;1257;25327;-59
2023/09/26 07:09:31;;;;;;;12.30;7.10;;;;;;;25.99;43.20;102374.98;106879;1273;22523;-58
2023/09/26 07:11:58;;;;;;;11.70;6.70;;;;;;;25.99;43.07;102376.53;107108;1263;25346;-58
2023/09/26 07:14:25;;;;;;;7.90;6.00;;;;;;;26.01;43.09;102381.05;107137;1254;25353;-57
2023/09/26 07:16:52;;;;;;;12.70;6.60;;;;;;;26.04;43.44;102378.54;106743;1274;25468;-58
2023/09/26 07:19:19;;;;;;;11.50;7.10;;;;;;;26.12;43.07;102380.55;107126;1256;25347;-58
2023/09/26 07:21:46;;;;;;;11.40;6.20;;;;;;;26.11;43.45;102381.71;107110;1254;22517;-58
2023/09/26 07:24:13;;;;;;;8.20;6.40;;;;;;;26.16;43.52;102383.15;107132;1267;25318;-58
2023/09/26 07:26:40;;;;;;;8.90;6.10;;;;;;;26.19;43.65;102382.80;107190;1254;24255;-58
2023/09/26 07:29:08;;;;;;;11.00;6.10;;;;;;;26.21;43.61;102386.59;107156;1257;25317;-58
2023/09/26 07:31:35;;;;;;;9.10;6.30;;;;;;;26.26;43.47;102389.67;107189;1263;25356;-58
2023/09/26 07:34:02;;;;;;;8.30;5.70;;;;;;;26.29;43.49;102392.48;107072;1254;25430;-58
2023/09/26 07:36:32;;;;;;;10.30;6.20;;;;;;;26.33;43.27;102390.98;107106;1256;25359;-57
2023/09/26 07:38:58;;;;;;;12.00;6.40;;;;;;;26.35;43.01;102390.66;107173;1263;25268;-58
2023/09/26 07:41:25;;;;;;;8.40;5.60;;;;;;;26.38;43.07;102390.14;106919;1266;25402;-57
2023/09/26 07:43:53;;;;;;;8.50;5.50;;;;;;;26.42;43.25;102390.41;107147;1263;25353;-58
2023/09/26 07:46:20;;;;;;;12.00;6.00;;;;;;;26.47;43.15;102388.89;107033;1257;25395;-58
2023/09/26 07:48:48;;;;;;;11.20;6.10;;;;;;;26.50;43.31;102393.63;106981;1257;25356;-59
2023/09/26 07:51:19;;;;;;;7.90;5.60;;;;;;;26.52;43.13;102396.37;107164;1254;25477;-58
2023/09/26 07:53:45;;;;;;;13.30;6.50;;;;;;;26.54;42.99;102392.52;107210;1255;22531;-59
2023/09/26 07:56:13;;;;;;;10.20;6.00;;;;;;;26.56;43.16;102397.73;106886;1260;25213;-59
2023/09/26 07:58:40;;;;;;;10.80;6.20;;;;;;;26.59;42.97;102392.90;107137;1269;25404;-57
2023/09/26 08:01:09;;;;;;;13.50;6.40;;;;;;;26.61;42.90;102394.89;107037;1269;25326;-58
2023/09/26 08:03:39;;;;;;;9.60;5.70;;;;;;;26.66;42.84;102396.20;107117;1267;25340;-58
2023/09/26 08:06:06;;;;;;;9.90;6.00;;;;;;;26.68;42.56;102393.63;107149;1254;23886;-59
2023/09/26 08:08:34;;;;;;;10.10;6.10;;;;;;;26.69;42.54;102392.08;106760;1274;25284;-58
2023/09/26 08:11:06;;;;;;;10.40;6.00;;;;;;;26.72;42.65;102395.81;107155;1254;25321;-59
2023/09/26 08:13:33;;;;;;;;;;;;;;;26.75;42.48;102394.73;106870;1267;25489;-58
2023/09/26 08:16:00;;;;;;;10.70;5.40;;;;;;;26.78;42.62;102391.70;107163;1256;22639;-59
2023/09/26 08:18:27;;;;;;;7.10;5.40;;;;;;;26.79;42.32;102389.66;107192;1266;25353;-58
2023/09/26 08:20:55;;;;;;;10.30;5.60;;;;;;;26.82;42.34;102389.30;107179;1273;25426;-58
2023/09/26 08:23:22;;;;;;;7.40;5.60;;;;;;;26.86;42.53;102389.94;107161;1266;25402;-58
2023/09/26 08:25:49;;;;;;;12.30;5.80;;;;;;;26.91;42.42;102391.22;107121;1263;25343;-58
2023/09/26 08:28:16;;;;;;;7.40;5.20;;;;;;;26.94;41.97;102388.73;107134;1260;25353;-58
2023/09/26 08:30:43;;;;;;;10.50;5.40;;;;;;;26.95;41.71;102388.83;107039;1257;25344;-58
2023/09/26 08:33:10;;;;;;;7.90;5.90;;;;;;;26.96;41.85;102390.69;107037;1257;25430;-58
2023/09/26 08:35:38;;;;;;;9.70;4.90;;;;;;;27.00;41.72;102385.99;107105;1257;22539;-57
2023/09/26 08:38:05;;;;;;;7.70;6.10;;;;;;;27.03;41.49;102386.52;107201;1267;25546;-57
2023/09/26 08:40:32;;;;;;;7.40;5.00;;;;;;;27.08;41.87;102386.22;107162;1256;25360;-58
2023/09/26 08:42:59;;;;;;;11.20;5.40;;;;;;;27.13;41.82;102382.13;107139;1260;25464;-57
2023/09/26 08:45:27;;;;;;;11.60;6.10;;;;;;;27.17;41.77;102385.02;106848;1274;25800;-58
2023/09/26 08:47:55;;;;;;;10.20;5.50;;;;;;;27.23;41.73;102383.02;106919;1267;25396;-58
2023/09/26 08:50:24;;;;;;;9.30;5.70;;;;;;;27.29;41.69;102388.31;107032;1256;26570;-58
2023/09/26 08:52:52;;;;;;;8.90;5.40;;;;;;;27.35;41.55;102382.76;106941;1263;25309;-57
2023/09/26 08:55:20;;;;;;;8.50;5.20;;;;;;;27.42;41.33;102383.79;107036;1273;25363;-58
2023/09/26 08:57:49;;;;;;;8.90;5.10;;;;;;;27.50;41.02;102384.68;106877;1253;25405;-58
2023/09/26 09:00:16;;;;;;;9.60;5.20;;;;;;;27.56;40.32;102385.30;107104;1260;22642;-58
2023/09/26 09:02:43;;;;;;;9.40;5.10;;;;;;;27.62;39.76;102383.16;106884;1260;25337;-58
2023/09/26 09:05:10;;;;;;;6.00;5.00;;;;;;;27.64;39.76;102381.39;107102;1257;25356;-58
2023/09/26 09:07:39;;;;;;;8.60;5.50;;;;;;;27.68;39.64;102385.24;107125;1257;25455;-58
2023/09/26 09:10:10;;;;;;;8.60;5.50;;;;;;;27.71;39.82;102386.25;107125;1256;23503;-58
2023/09/26 09:12:40;;;;;;;6.70;5.00;;;;;;;27.76;39.88;102387.54;107175;1257;25337;-58
2023/09/26 09:15:21;;;;;;;8.90;5.20;;;;;;;27.81;39.77;102385.55;107088;1273;25252;-58
2023/09/26 09:17:49;;;;;;;9.20;4.60;;;;;;;27.88;39.70;102392.75;107186;1267;22591;-58
2023/09/26 09:20:33;;;;;;;7.10;5.10;;;;;;;27.92;39.74;102390.85;107080;1254;25311;-57
2023/09/26 09:23:04;;;;;;;7.60;5.30;;;;;;;27.96;40.14;102393.85;106909;1266;25359;-58
2023/09/26 09:25:33;;;;;;;7.10;4.80;;;;;;;28.04;40.11;102388.60;107121;1267;25315;-57
2023/09/26 09:28:00;;;;;;;11.30;4.90;;;;;;;28.12;39.58;102390.92;107084;1273;25474;-57
2023/09/26 09:30:28;;;;;;;7.80;5.20;;;;;;;28.20;38.86;102388.95;107206;1264;25319;-57
2023/09/26 09:32:56;;;;;;;6.20;4.90;;;;;;;28.25;38.33;102383.60;106815;1269;25462;-57
2023/09/26 09:35:23;;;;;;;8.20;4.80;;;;;;;28.21;38.21;102385.46;107110;1271;25356;-58
2023/09/26 09:37:51;;;;;;;5.90;4.50;;;;;;;28.21;38.29;102388.85;107102;1257;25481;-58
2023/09/26 09:40:19;;;;;;;9.20;4.60;;;;;;;28.30;38.33;102383.91;107168;1266;25318;-58
2023/09/26 09:42:50;;;;;;;8.20;4.80;;;;;;;28.34;37.98;102384.21;106913;1267;25381;-59
2023/09/26 09:45:18;;;;;;;6.20;4.60;;;;;;;28.39;37.95;102381.30;107096;1254;25389;-58
2023/09/26 09:47:46;;;;;;;9.90;4.70;;;;;;;28.44;37.96;102382.52;107111;1272;25343;-57
2023/09/26 09:50:13;;;;;;;5.80;4.30;;;;;;;28.49;37.80;102382.36;107145;1266;22640;-58
2023/09/26 09:52:44;;;;;;;6.30;4.50;;;;;;;28.54;37.54;102381.83;107154;1272;25249;-57
2023/09/26 09:55:23;;;;;;;7.20;4.80;;;;;;;28.57;37.34;102380.36;107041;1264;25478;-57
2023/09/26 09:57:51;;;;;;;12.90;4.80;;;;;;;28.56;37.07;102377.64;107120;1257;22547;-57
2023/09/26 10:00:20;;;;;;;5.70;3.90;;;;;;;28.58;36.16;102379.46;106895;1260;25349;-58
2023/09/26 10:02:47;;;;;;;7.90;4.10;;;;;;;28.59;36.38;102378.64;107186;1256;22643;-58
2023/09/26 10:05:14;;;;;;;6.50;4.30;;;;;;;28.63;36.59;102379.78;107134;1265;25427;-58
2023/09/26 10:07:42;;;;;;;7.40;4.20;;;;;;;28.59;36.22;102374.88;107124;1266;25318;-58
2023/09/26 10:10:10;;;;;;;10.50;4.70;;;;;;;28.70;36.39;102372.49;107101;1266;25489;-58
2023/09/26 10:12:38;;;;;;;5.30;4.00;;;;;;;28.76;36.32;102370.45;107174;1257;25376;-58
2023/09/26 10:15:13;;;;;;;8.30;4.50;;;;;;;28.82;36.44;102369.78;107137;1274;25356;-58
2023/09/26 10:17:41;;;;;;;10.90;4.40;;;;;;;28.87;35.59;102366.73;107163;1267;25319;-58
2023/09/26 10:20:12;;;;;;;9.50;4.40;;;;;;;28.90;35.58;102361.34;107189;1256;23123;-58
2023/09/26 10:22:44;;;;;;;7.20;4.20;;;;;;;28.91;35.24;102360.72;107102;1256;22777;-58
2023/09/26 10:25:29;;;;;;;8.80;4.40;;;;;;;28.92;34.97;102360.34;107168;1267;24233;-58
2023/09/26 10:27:57;;;;;;;5.80;4.60;;;;;;;28.92;35.02;102354.94;107167;1260;22993;-58
2023/09/26 10:30:27;;;;;;;7.00;4.40;;;;;;;28.94;34.90;102355.33;106852;1258;25334;-59
2023/09/26 10:32:54;;;;;;;12.20;4.00;;;;;;;28.96;34.67;102350.50;107018;1272;23884;-59
2023/09/26 10:35:23;;;;;;;9.40;4.10;;;;;;;28.98;34.38;102343.22;107058;1257;25346;-58
2023/09/26 10:38:17;;;;;;;6.40;4.30;;;;;;;29.01;34.19;102347.17;106998;1267;25414;-58
2023/09/26 10:40:47;;;;;;;6.30;4.30;;;;;;;29.07;34.44;102343.18;107055;1263;25337;-58
2023/09/26 10:43:15;;;;;;;;;;;;;;;29.19;34.06;102345.33;106890;1273;25568;-58
2023/09/26 10:45:45;;;;;;;7.80;3.90;;;;;;;29.25;33.82;102344.67;107142;1256;25321;-58
2023/09/26 10:48:20;;;;;;;9.90;4.00;;;;;;;29.31;33.53;102340.24;107078;1266;25381;-58
2023/09/26 10:50:47;;;;;;;6.80;4.40;;;;;;;29.36;33.44;102339.35;107113;1250;25309;-58
2023/09/26 10:53:14;;;;;;;7.50;4.20;;;;;;;29.40;33.34;102340.27;106992;1266;25318;-58
2023/09/26 10:55:41;;;;;;;9.70;4.00;;;;;;;29.46;33.17;102336.25;107080;1266;24298;-58
2023/09/26 10:58:09;;;;;;;6.70;4.20;;;;;;;29.51;32.90;102333.40;107123;1257;25356;-58
2023/09/26 11:00:35;;;;;;;8.50;4.60;;;;;;;29.52;33.05;102333.85;107066;1260;25381;-58
2023/09/26 11:03:04;;;;;;;10.90;4.20;;;;;;;29.57;33.08;102329.34;106973;1267;25386;-57
2023/09/26 11:05:31;;;;;;;7.60;4.10;;;;;;;29.59;32.79;102327.38;107156;1256;22531;-59
2023/09/26 11:08:18;;;;;;;5.40;4.00;;;;;;;29.60;32.48;102331.41;107042;1267;25511;-59
2023/09/26 11:10:48;;;;;;;6.90;4.10;;;;;;;29.63;32.31;102328.11;107160;1266;25430;-59
2023/09/26 11:13:16;;;;;;;9.20;3.90;;;;;;;29.67;32.34;102328.50;106966;1260;25287;-59
2023/09/26 11:15:47;;;;;;;6.10;4.00;;;;;;;29.71;32.53;102328.95;107024;1268;25440;-58